sensor_id;sensor_type;location;lat;lon;timestamp;pressure;altitude;pressure_sealevel;temperature;humidity
5296;BME280;2670;42.720;23.336;2023-02-28T00:00:26;-22630.06;;;6.46;100.00
5296;BME280;2670;42.720;23.336;2023-02-28T00:02:54;-22627.53;;;6.38;100.00
5296;BME280;2670;42.720;23.336;2023-02-28T00:05:23;-22626.94;;;6.36;100.00
5296;BME280;2670;42.720;23.336;2023-02-28T00:07:51;-22624.84;;;6.29;100.00
5296;BME280;2670;42.720;23.336;2023-02-28T00:10:18;-22624.72;;;6.28;100.00
5296;BME280;2670;42.720;23.336;2023-02-28T00:12:46;-22625.75;;;6.32;100.00
5296;BME280;2670;42.720;23.336;2023-02-28T00:15:13;-22625.16;;;6.30;100.00
5296;BME280;2670;42.720;23.336;2023-02-28T00:17:39;-22626.50;;;6.34;100.00
5296;BME280;2670;42.720;23.336;2023-02-28T00:20:09;-22625.91;;;6.32;100.00
5296;BME280;2670;42.720;23.336;2023-02-28T00:22:38;-22625.31;;;6.30;100.00
5296;BME280;2670;42.720;23.336;2023-02-28T00:25:06;-22624.56;;;6.28;100.00
5296;BME280;2670;42.720;23.336;2023-02-28T00:27:33;-22627.09;;;6.36;100.00
5296;BME280;2670;42.720;23.336;2023-02-28T00:30:00;-22627.84;;;6.39;100.00
5296;BME280;2670;42.720;23.336;2023-02-28T00:32:27;-22625.59;;;6.31;100.00
5296;BME280;2670;42.720;23.336;2023-02-28T00:34:53;-22624.41;;;6.27;100.00
5296;BME280;2670;42.720;23.336;2023-02-28T00:37:21;-22622.91;;;6.22;100.00
5296;BME280;2670;42.720;23.336;2023-02-28T00:39:48;-22622.31;;;6.20;100.00
5296;BME280;2670;42.720;23.336;2023-02-28T00:42:15;-22623.53;;;6.24;100.00
5296;BME280;2670;42.720;23.336;2023-02-28T00:44:41;-22620.38;;;6.13;100.00
5296;BME280;2670;42.720;23.336;2023-02-28T00:47:08;-22620.84;;;6.15;100.00
5296;BME280;2670;42.720;23.336;2023-02-28T00:49:35;-22618.75;;;6.08;100.00
5296;BME280;2670;42.720;23.336;2023-02-28T00:52:02;-22615.78;;;5.97;100.00
5296;BME280;2670;42.720;23.336;2023-02-28T00:54:30;-22618.91;;;6.08;100.00
5296;BME280;2670;42.720;23.336;2023-02-28T00:56:57;-22617.84;;;6.05;100.00
5296;BME280;2670;42.720;23.336;2023-02-28T00:59:24;-22614.72;;;5.94;100.00
5296;BME280;2670;42.720;23.336;2023-02-28T01:01:51;-22614.13;;;5.92;100.00
5296;BME280;2670;42.720;23.336;2023-02-28T01:04:17;-22610.41;;;5.79;100.00
5296;BME280;2670;42.720;23.336;2023-02-28T01:06:44;-22609.50;;;5.76;100.00
5296;BME280;2670;42.720;23.336;2023-02-28T01:09:11;-22608.31;;;5.72;100.00
5296;BME280;2670;42.720;23.336;2023-02-28T01:11:39;-22610.13;;;5.78;100.00
5296;BME280;2670;42.720;23.336;2023-02-28T01:14:11;-22609.81;;;5.77;100.00
5296;BME280;2670;42.720;23.336;2023-02-28T01:16:38;-22609.50;;;5.76;100.00
5296;BME280;2670;42.720;23.336;2023-02-28T01:19:05;-22607.28;;;5.68;100.00
5296;BME280;2670;42.720;23.336;2023-02-28T01:21:32;-22603.41;;;5.55;100.00
5296;BME280;2670;42.720;23.336;2023-02-28T01:24:00;-22604.44;;;5.59;100.00
5296;BME280;2670;42.720;23.336;2023-02-28T01:26:27;-22603.72;;;5.56;100.00
5296;BME280;2670;42.720;23.336;2023-02-28T01:28:55;-22604.59;;;5.59;100.00
5296;BME280;2670;42.720;23.336;2023-02-28T01:31:22;-22601.91;;;5.50;100.00
5296;BME280;2670;42.720;23.336;2023-02-28T01:33:49;-22600.44;;;5.45;100.00
5296;BME280;2670;42.720;23.336;2023-02-28T01:36:17;-22600.00;;;5.43;100.00
5296;BME280;2670;42.720;23.336;2023-02-28T01:38:45;-22597.31;;;5.34;100.00
5296;BME280;2670;42.720;23.336;2023-02-28T01:41:16;-22597.00;;;5.33;100.00
5296;BME280;2670;42.720;23.336;2023-02-28T01:43:57;-22597.31;;;5.34;100.00
5296;BME280;2670;42.720;23.336;2023-02-28T01:46:25;-22594.47;;;5.24;100.00
5296;BME280;2670;42.720;23.336;2023-02-28T01:48:54;-22595.66;;;5.29;100.00
5296;BME280;2670;42.720;23.336;2023-02-28T01:51:28;-22598.50;;;5.38;100.00
5296;BME280;2670;42.720;23.336;2023-02-28T01:53:59;-22596.72;;;5.32;100.00
5296;BME280;2670;42.720;23.336;2023-02-28T01:56:30;-22600.28;;;5.44;100.00
5296;BME280;2670;42.720;23.336;2023-02-28T01:59:00;-22597.44;;;5.35;100.00
5296;BME280;2670;42.720;23.336;2023-02-28T02:01:27;-22600.13;;;5.44;100.00
5296;BME280;2670;42.720;23.336;2023-02-28T02:03:57;-22599.25;;;5.41;100.00
5296;BME280;2670;42.720;23.336;2023-02-28T02:06:28;-22599.25;;;5.41;100.00
5296;BME280;2670;42.720;23.336;2023-02-28T02:08:55;-22601.31;;;5.48;100.00
5296;BME280;2670;42.720;23.336;2023-02-28T02:11:23;-22603.72;;;5.56;100.00
5296;BME280;2670;42.720;23.336;2023-02-28T02:14:05;-22597.00;;;5.33;100.00
5296;BME280;2670;42.720;23.336;2023-02-28T02:16:51;-22596.41;;;5.31;100.00
5296;BME280;2670;42.720;23.336;2023-02-28T02:19:44;-22596.41;;;5.31;100.00
5296;BME280;2670;42.720;23.336;2023-02-28T02:25:28;-22595.97;;;5.30;100.00
5296;BME280;2670;42.720;23.336;2023-02-28T02:28:13;-22594.91;;;5.26;100.00
5296;BME280;2670;42.720;23.336;2023-02-28T02:31:25;-22593.44;;;5.21;100.00
5296;BME280;2670;42.720;23.336;2023-02-28T02:34:26;-22598.50;;;5.38;100.00
5296;BME280;2670;42.720;23.336;2023-02-28T02:37:05;-22593.88;;;5.22;100.00
5296;BME280;2670;42.720;23.336;2023-02-28T02:39:41;-22594.78;;;5.25;100.00
5296;BME280;2670;42.720;23.336;2023-02-28T02:42:14;-22592.97;;;5.19;100.00
5296;BME280;2670;42.720;23.336;2023-02-28T02:44:47;-22596.25;;;5.31;100.00
5296;BME280;2670;42.720;23.336;2023-02-28T02:47:17;-22595.81;;;5.29;100.00
5296;BME280;2670;42.720;23.336;2023-02-28T02:49:49;-22593.56;;;5.21;100.00
5296;BME280;2670;42.720;23.336;2023-02-28T02:52:20;-22594.31;;;5.24;100.00
5296;BME280;2670;42.720;23.336;2023-02-28T02:54:49;-22593.28;;;5.20;100.00
5296;BME280;2670;42.720;23.336;2023-02-28T02:57:21;-22593.88;;;5.22;100.00
5296;BME280;2670;42.720;23.336;2023-02-28T02:59:51;-22592.38;;;5.17;100.00
5296;BME280;2670;42.720;23.336;2023-02-28T03:02:21;-22592.97;;;5.19;100.00
5296;BME280;2670;42.720;23.336;2023-02-28T03:04:52;-22596.09;;;5.30;100.00
5296;BME280;2670;42.720;23.336;2023-02-28T03:07:20;-22593.72;;;5.22;100.00
5296;BME280;2670;42.720;23.336;2023-02-28T03:09:51;-22592.53;;;5.18;100.00
5296;BME280;2670;42.720;23.336;2023-02-28T03:12:18;-22594.63;;;5.25;100.00
5296;BME280;2670;42.720;23.336;2023-02-28T03:14:55;-22595.81;;;5.29;100.00
5296;BME280;2670;42.720;23.336;2023-02-28T03:17:30;-22593.88;;;5.22;100.00
5296;BME280;2670;42.720;23.336;2023-02-28T03:20:06;-22592.09;;;5.16;100.00
5296;BME280;2670;42.720;23.336;2023-02-28T03:22:44;-22591.34;;;5.14;100.00
5296;BME280;2670;42.720;23.336;2023-02-28T03:25:19;-22596.41;;;5.31;100.00
5296;BME280;2670;42.720;23.336;2023-02-28T03:27:52;-22592.84;;;5.19;100.00
5296;BME280;2670;42.720;23.336;2023-02-28T03:30:24;-22588.81;;;5.05;100.00
5296;BME280;2670;42.720;23.336;2023-02-28T03:32:57;-22591.78;;;5.15;100.00
5296;BME280;2670;42.720;23.336;2023-02-28T03:35:28;-22590.31;;;5.10;100.00
5296;BME280;2670;42.720;23.336;2023-02-28T03:38:01;-22591.66;;;5.15;100.00
5296;BME280;2670;42.720;23.336;2023-02-28T03:40:32;-22590.59;;;5.11;100.00
5296;BME280;2670;42.720;23.336;2023-02-28T03:43:02;-22593.13;;;5.20;100.00
5296;BME280;2670;42.720;23.336;2023-02-28T03:45:34;-22594.63;;;5.25;100.00
5296;BME280;2670;42.720;23.336;2023-02-28T03:48:05;-22594.03;;;5.23;100.00
5296;BME280;2670;42.720;23.336;2023-02-28T03:50:39;-22594.03;;;5.23;100.00
5296;BME280;2670;42.720;23.336;2023-02-28T03:53:10;-22595.66;;;5.29;100.00
5296;BME280;2670;42.720;23.336;2023-02-28T03:55:40;-22595.97;;;5.30;100.00
5296;BME280;2670;42.720;23.336;2023-02-28T03:58:14;-22593.88;;;5.22;100.00
5296;BME280;2670;42.720;23.336;2023-02-28T04:00:46;-22595.38;;;5.28;100.00
5296;BME280;2670;42.720;23.336;2023-02-28T04:03:16;-22595.97;;;5.30;100.00
5296;BME280;2670;42.720;23.336;2023-02-28T04:05:50;-22597.00;;;5.33;100.00
5296;BME280;2670;42.720;23.336;2023-02-28T04:08:18;-22596.84;;;5.33;100.00
5296;BME280;2670;42.720;23.336;2023-02-28T04:10:49;-22599.84;;;5.43;100.00
5296;BME280;2670;42.720;23.336;2023-02-28T04:13:18;-22596.84;;;5.33;100.00
5296;BME280;2670;42.720;23.336;2023-02-28T04:15:45;-22597.75;;;5.36;100.00
5296;BME280;2670;42.720;23.336;2023-02-28T04:18:11;-22600.13;;;5.44;100.00
5296;BME280;2670;42.720;23.336;2023-02-28T04:20:38;-22601.03;;;5.47;100.00
5296;BME280;2670;42.720;23.336;2023-02-28T04:23:06;-22596.84;;;5.33;100.00
5296;BME280;2670;42.720;23.336;2023-02-28T04:25:33;-22597.91;;;5.36;100.00
5296;BME280;2670;42.720;23.336;2023-02-28T04:27:59;-22596.25;;;5.31;100.00
5296;BME280;2670;42.720;23.336;2023-02-28T04:30:26;-22594.03;;;5.23;100.00
5296;BME280;2670;42.720;23.336;2023-02-28T04:32:54;-22593.28;;;5.20;100.00
5296;BME280;2670;42.720;23.336;2023-02-28T04:35:21;-22594.31;;;5.24;100.00
5296;BME280;2670;42.720;23.336;2023-02-28T04:37:48;-22591.78;;;5.15;100.00
5296;BME280;2670;42.720;23.336;2023-02-28T04:40:16;-22589.41;;;5.07;100.00
5296;BME280;2670;42.720;23.336;2023-02-28T04:42:43;-22589.56;;;5.08;100.00
5296;BME280;2670;42.720;23.336;2023-02-28T04:45:10;-22590.44;;;5.11;100.00
5296;BME280;2670;42.720;23.336;2023-02-28T04:47:37;-22590.75;;;5.12;100.00
5296;BME280;2670;42.720;23.336;2023-02-28T04:50:04;-22589.41;;;5.07;100.00
5296;BME280;2670;42.720;23.336;2023-02-28T04:52:31;-22588.66;;;5.05;100.00
5296;BME280;2670;42.720;23.336;2023-02-28T04:54:57;-22590.16;;;5.10;100.00
5296;BME280;2670;42.720;23.336;2023-02-28T04:57:25;-22590.16;;;5.10;100.00
5296;BME280;2670;42.720;23.336;2023-02-28T04:59:52;-22591.19;;;5.13;100.00
5296;BME280;2670;42.720;23.336;2023-02-28T05:02:19;-22590.44;;;5.11;100.00
5296;BME280;2670;42.720;23.336;2023-02-28T05:04:46;-22590.91;;;5.12;100.00
5296;BME280;2670;42.720;23.336;2023-02-28T05:07:13;-22591.34;;;5.14;100.00
5296;BME280;2670;42.720;23.336;2023-02-28T05:09:39;-22593.88;;;5.22;100.00
5296;BME280;2670;42.720;23.336;2023-02-28T05:12:07;-22594.31;;;5.24;100.00
5296;BME280;2670;42.720;23.336;2023-02-28T05:14:36;-22597.44;;;5.35;100.00
5296;BME280;2670;42.720;23.336;2023-02-28T05:17:03;-22598.50;;;5.38;100.00
5296;BME280;2670;42.720;23.336;2023-02-28T05:19:30;-22595.06;;;5.27;100.00
5296;BME280;2670;42.720;23.336;2023-02-28T05:21:57;-22595.22;;;5.27;100.00
5296;BME280;2670;42.720;23.336;2023-02-28T05:24:24;-22594.31;;;5.24;100.00
5296;BME280;2670;42.720;23.336;2023-02-28T05:26:52;-22597.59;;;5.35;100.00
5296;BME280;2670;42.720;23.336;2023-02-28T05:29:19;-22598.50;;;5.38;100.00
5296;BME280;2670;42.720;23.336;2023-02-28T05:31:47;-22597.16;;;5.34;100.00
5296;BME280;2670;42.720;23.336;2023-02-28T05:34:14;-22597.91;;;5.36;100.00
5296;BME280;2670;42.720;23.336;2023-02-28T05:36:41;-22598.50;;;5.38;100.00
5296;BME280;2670;42.720;23.336;2023-02-28T05:39:08;-22600.13;;;5.44;100.00
5296;BME280;2670;42.720;23.336;2023-02-28T05:41:41;-22598.50;;;5.38;100.00
5296;BME280;2670;42.720;23.336;2023-02-28T05:44:08;-22603.72;;;5.56;100.00
5296;BME280;2670;42.720;23.336;2023-02-28T05:46:34;-22603.13;;;5.54;100.00
5296;BME280;2670;42.720;23.336;2023-02-28T05:49:03;-22603.56;;;5.56;100.00
5296;BME280;2670;42.720;23.336;2023-02-28T05:51:30;-22605.34;;;5.62;100.00
5296;BME280;2670;42.720;23.336;2023-02-28T05:54:00;-22604.16;;;5.58;100.00
5296;BME280;2670;42.720;23.336;2023-02-28T05:56:28;-22605.19;;;5.61;100.00
5296;BME280;2670;42.720;23.336;2023-02-28T05:58:54;-22601.31;;;5.48;100.00
5296;BME280;2670;42.720;23.336;2023-02-28T06:01:31;-22602.81;;;5.53;100.00
5296;BME280;2670;42.720;23.336;2023-02-28T06:03:58;-22602.66;;;5.53;100.00
5296;BME280;2670;42.720;23.336;2023-02-28T06:06:27;-22603.56;;;5.56;100.00
5296;BME280;2670;42.720;23.336;2023-02-28T06:08:54;-22606.38;;;5.65;100.00
5296;BME280;2670;42.720;23.336;2023-02-28T06:11:21;-22606.38;;;5.65;100.00
5296;BME280;2670;42.720;23.336;2023-02-28T06:13:53;-22607.44;;;5.69;100.00
5296;BME280;2670;42.720;23.336;2023-02-28T06:16:20;-22607.72;;;5.70;100.00
5296;BME280;2670;42.720;23.336;2023-02-28T06:18:47;-22604.16;;;5.58;100.00
5296;BME280;2670;42.720;23.336;2023-02-28T06:21:13;-22605.66;;;5.63;100.00
5296;BME280;2670;42.720;23.336;2023-02-28T06:23:41;-22602.97;;;5.54;100.00
5296;BME280;2670;42.720;23.336;2023-02-28T06:26:09;-22604.00;;;5.57;100.00
5296;BME280;2670;42.720;23.336;2023-02-28T06:28:36;-22602.66;;;5.53;100.00
5296;BME280;2670;42.720;23.336;2023-02-28T06:31:06;-22601.03;;;5.47;100.00
5296;BME280;2670;42.720;23.336;2023-02-28T06:33:33;-22600.88;;;5.46;100.00
5296;BME280;2670;42.720;23.336;2023-02-28T06:36:00;-22601.91;;;5.50;100.00
5296;BME280;2670;42.720;23.336;2023-02-28T06:38:27;-22601.47;;;5.48;100.00
5296;BME280;2670;42.720;23.336;2023-02-28T06:40:56;-22603.41;;;5.55;100.00
5296;BME280;2670;42.720;23.336;2023-02-28T06:43:24;-22603.56;;;5.56;100.00
5296;BME280;2670;42.720;23.336;2023-02-28T06:45:54;-22605.78;;;5.63;100.00
5296;BME280;2670;42.720;23.336;2023-02-28T06:48:21;-22605.06;;;5.61;100.00
5296;BME280;2670;42.720;23.336;2023-02-28T06:50:48;-22605.50;;;5.62;100.00
5296;BME280;2670;42.720;23.336;2023-02-28T06:53:14;-22605.34;;;5.62;100.00
5296;BME280;2670;42.720;23.336;2023-02-28T06:55:41;-22606.69;;;5.66;100.00
5296;BME280;2670;42.720;23.336;2023-02-28T06:58:10;-22608.47;;;5.72;100.00
5296;BME280;2670;42.720;23.336;2023-02-28T07:00:44;-22607.72;;;5.70;100.00
5296;BME280;2670;42.720;23.336;2023-02-28T07:03:12;-22608.47;;;5.72;100.00
5296;BME280;2670;42.720;23.336;2023-02-28T07:05:40;-22609.22;;;5.75;100.00
5296;BME280;2670;42.720;23.336;2023-02-28T07:08:07;-22607.44;;;5.69;100.00
5296;BME280;2670;42.720;23.336;2023-02-28T07:10:34;-22607.88;;;5.70;100.00
5296;BME280;2670;42.720;23.336;2023-02-28T07:13:03;-22609.22;;;5.75;100.00
5296;BME280;2670;42.720;23.336;2023-02-28T07:15:32;-22611.75;;;5.84;100.00
5296;BME280;2670;42.720;23.336;2023-02-28T07:17:58;-22613.69;;;5.90;100.00
5296;BME280;2670;42.720;23.336;2023-02-28T07:20:25;-22615.31;;;5.96;100.00
5296;BME280;2670;42.720;23.336;2023-02-28T07:22:52;-22620.53;;;6.14;100.00
5296;BME280;2670;42.720;23.336;2023-02-28T07:25:21;-22616.06;;;5.98;100.00
5296;BME280;2670;42.720;23.336;2023-02-28T07:27:48;-22618.31;;;6.06;100.00
5296;BME280;2670;42.720;23.336;2023-02-28T07:30:16;-22614.72;;;5.94;100.00
5296;BME280;2670;42.720;23.336;2023-02-28T07:32:44;-22616.38;;;5.99;100.00
5296;BME280;2670;42.720;23.336;2023-02-28T07:35:11;-22621.00;;;6.15;100.00
5296;BME280;2670;42.720;23.336;2023-02-28T07:37:37;-22620.09;;;6.12;100.00
5296;BME280;2670;42.720;23.336;2023-02-28T07:40:06;-22620.09;;;6.12;100.00
5296;BME280;2670;42.720;23.336;2023-02-28T07:42:36;-22623.81;;;6.25;100.00
5296;BME280;2670;42.720;23.336;2023-02-28T07:45:10;-22621.72;;;6.18;100.00
5296;BME280;2670;42.720;23.336;2023-02-28T07:47:37;-22620.09;;;6.12;100.00
5296;BME280;2670;42.720;23.336;2023-02-28T07:50:08;-22622.19;;;6.19;100.00
5296;BME280;2670;42.720;23.336;2023-02-28T07:52:36;-22627.38;;;6.37;100.00
5296;BME280;2670;42.720;23.336;2023-02-28T07:55:03;-22624.09;;;6.26;100.00
5296;BME280;2670;42.720;23.336;2023-02-28T07:57:30;-22625.91;;;6.32;100.00
5296;BME280;2670;42.720;23.336;2023-02-28T07:59:57;-22627.38;;;6.37;100.00
5296;BME280;2670;42.720;23.336;2023-02-28T08:02:24;-22626.78;;;6.35;100.00
5296;BME280;2670;42.720;23.336;2023-02-28T08:04:50;-22630.81;;;6.49;100.00
5296;BME280;2670;42.720;23.336;2023-02-28T08:07:18;-22633.34;;;6.58;100.00
5296;BME280;2670;42.720;23.336;2023-02-28T08:09:46;-22635.13;;;6.64;100.00
5296;BME280;2670;42.720;23.336;2023-02-28T08:12:12;-22637.66;;;6.72;100.00
5296;BME280;2670;42.720;23.336;2023-02-28T08:14:40;-22642.84;;;6.90;100.00
5296;BME280;2670;42.720;23.336;2023-02-28T08:17:06;-22641.22;;;6.85;100.00
5296;BME280;2670;42.720;23.336;2023-02-28T08:19:33;-22642.56;;;6.89;100.00
5296;BME280;2670;42.720;23.336;2023-02-28T08:22:00;-22644.94;;;6.97;100.00
5296;BME280;2670;42.720;23.336;2023-02-28T08:24:28;-22648.06;;;7.08;100.00
5296;BME280;2670;42.720;23.336;2023-02-28T08:26:56;-22646.72;;;7.04;100.00
5296;BME280;2670;42.720;23.336;2023-02-28T08:29:23;-22650.59;;;7.17;100.00
5296;BME280;2670;42.720;23.336;2023-02-28T08:31:49;-22651.94;;;7.21;100.00
5296;BME280;2670;42.720;23.336;2023-02-28T08:34:16;-22654.91;;;7.32;100.00
5296;BME280;2670;42.720;23.336;2023-02-28T08:36:43;-22660.09;;;7.49;100.00
5296;BME280;2670;42.720;23.336;2023-02-28T08:39:11;-22660.09;;;7.49;100.00
5296;BME280;2670;42.720;23.336;2023-02-28T08:41:39;-22661.59;;;7.55;100.00
5296;BME280;2670;42.720;23.336;2023-02-28T08:44:06;-22662.34;;;7.57;100.00
5296;BME280;2670;42.720;23.336;2023-02-28T08:46:33;-22666.34;;;7.71;100.00
5296;BME280;2670;42.720;23.336;2023-02-28T08:49:00;-22666.50;;;7.71;100.00
5296;BME280;2670;42.720;23.336;2023-02-28T08:51:28;-22669.91;;;7.83;100.00
5296;BME280;2670;42.720;23.336;2023-02-28T08:53:57;-22672.59;;;7.92;100.00
5296;BME280;2670;42.720;23.336;2023-02-28T08:56:25;-22673.03;;;7.94;100.00
5296;BME280;2670;42.720;23.336;2023-02-28T08:58:54;-22676.59;;;8.06;100.00
5296;BME280;2670;42.720;23.336;2023-02-28T09:01:23;-22677.94;;;8.11;100.00
5296;BME280;2670;42.720;23.336;2023-02-28T09:03:50;-22682.84;;;8.28;100.00
5296;BME280;2670;42.720;23.336;2023-02-28T09:06:19;-22683.13;;;8.29;100.00
5296;BME280;2670;42.720;23.336;2023-02-28T09:08:46;-22687.28;;;8.43;100.00
5296;BME280;2670;42.720;23.336;2023-02-28T09:11:14;-22689.81;;;8.52;100.00
5296;BME280;2670;42.720;23.336;2023-02-28T09:13:41;-22691.75;;;8.58;100.00
5296;BME280;2670;42.720;23.336;2023-02-28T09:16:11;-22697.38;;;8.78;100.00
5296;BME280;2670;42.720;23.336;2023-02-28T09:18:38;-22701.69;;;8.92;100.00
5296;BME280;2670;42.720;23.336;2023-02-28T09:21:06;-22705.84;;;9.07;100.00
5296;BME280;2670;42.720;23.336;2023-02-28T09:23:33;-22708.22;;;9.15;100.00
5296;BME280;2670;42.720;23.336;2023-02-28T09:26:00;-22710.16;;;9.21;100.00
5296;BME280;2670;42.720;23.336;2023-02-28T09:28:27;-22712.97;;;9.31;100.00
5296;BME280;2670;42.720;23.336;2023-02-28T09:30:54;-22716.09;;;9.42;100.00
5296;BME280;2670;42.720;23.336;2023-02-28T09:33:24;-22720.25;;;9.56;100.00
5296;BME280;2670;42.720;23.336;2023-02-28T09:35:56;-22721.72;;;9.61;100.00
5296;BME280;2670;42.720;23.336;2023-02-28T09:38:23;-22723.50;;;9.67;100.00
5296;BME280;2670;42.720;23.336;2023-02-28T09:40:53;-22724.97;;;9.72;100.00
5296;BME280;2670;42.720;23.336;2023-02-28T09:43:22;-22726.31;;;9.77;100.00
5296;BME280;2670;42.720;23.336;2023-02-28T09:45:52;-22726.47;;;9.78;100.00
5296;BME280;2670;42.720;23.336;2023-02-28T09:48:28;-22728.97;;;9.86;100.00
5296;BME280;2670;42.720;23.336;2023-02-28T09:51:00;-22730.03;;;9.90;100.00
5296;BME280;2670;42.720;23.336;2023-02-28T09:53:31;-22730.91;;;9.93;100.00
5296;BME280;2670;42.720;23.336;2023-02-28T09:56:01;-22731.50;;;9.95;100.00
5296;BME280;2670;42.720;23.336;2023-02-28T09:58:33;-22732.84;;;10.00;100.00
5296;BME280;2670;42.720;23.336;2023-02-28T10:01:08;-22737.44;;;10.15;100.00
5296;BME280;2670;42.720;23.336;2023-02-28T10:03:40;-22736.41;;;10.12;100.00
5296;BME280;2670;42.720;23.336;2023-02-28T10:06:14;-22737.44;;;10.15;100.00
5296;BME280;2670;42.720;23.336;2023-02-28T10:08:50;-22739.34;;;10.22;100.00
5296;BME280;2670;42.720;23.336;2023-02-28T10:11:19;-22740.09;;;10.25;100.00
5296;BME280;2670;42.720;23.336;2023-02-28T10:13:53;-22740.84;;;10.27;100.00
5296;BME280;2670;42.720;23.336;2023-02-28T10:16:30;-22742.47;;;10.33;100.00
5296;BME280;2670;42.720;23.336;2023-02-28T10:19:03;-22746.91;;;10.48;100.00
5296;BME280;2670;42.720;23.336;2023-02-28T10:21:35;-22747.97;;;10.52;100.00
5296;BME280;2670;42.720;23.336;2023-02-28T10:24:07;-22748.84;;;10.55;100.00
5296;BME280;2670;42.720;23.336;2023-02-28T10:26:38;-22750.31;;;10.60;100.00
5296;BME280;2670;42.720;23.336;2023-02-28T10:29:08;-22751.38;;;10.63;100.00
5296;BME280;2670;42.720;23.336;2023-02-28T10:31:36;-22753.13;;;10.69;100.00
5296;BME280;2670;42.720;23.336;2023-02-28T10:34:04;-22754.47;;;10.74;100.00
5296;BME280;2670;42.720;23.336;2023-02-28T10:36:31;-22755.97;;;10.79;100.00
5296;BME280;2670;42.720;23.336;2023-02-28T10:38:58;-22758.63;;;10.88;100.00
5296;BME280;2670;42.720;23.336;2023-02-28T10:41:30;-22762.47;;;11.02;100.00
5296;BME280;2670;42.720;23.336;2023-02-28T10:44:13;-22765.13;;;11.11;100.00
5296;BME280;2670;42.720;23.336;2023-02-28T10:46:41;-22766.91;;;11.17;100.00
5296;BME280;2670;42.720;23.336;2023-02-28T10:49:16;-22770.16;;;11.28;100.00
5296;BME280;2670;42.720;23.336;2023-02-28T10:51:44;-22774.75;;;11.44;100.00
5296;BME280;2670;42.720;23.336;2023-02-28T10:54:16;-22771.50;;;11.33;100.00
5296;BME280;2670;42.720;23.336;2023-02-28T10:56:43;-22772.09;;;11.35;100.00
5296;BME280;2670;42.720;23.336;2023-02-28T10:59:27;-22773.44;;;11.39;100.00
5296;BME280;2670;42.720;23.336;2023-02-28T11:01:55;-22769.88;;;11.27;100.00
5296;BME280;2670;42.720;23.336;2023-02-28T11:04:35;-22772.09;;;11.35;100.00
5296;BME280;2670;42.720;23.336;2023-02-28T11:07:06;-22774.47;;;11.43;100.00
5296;BME280;2670;42.720;23.336;2023-02-28T11:09:34;-22775.34;;;11.46;100.00
5296;BME280;2670;42.720;23.336;2023-02-28T11:12:03;-22778.31;;;11.56;100.00
5296;BME280;2670;42.720;23.336;2023-02-28T11:14:33;-22783.03;;;11.72;100.00
5296;BME280;2670;42.720;23.336;2023-02-28T11:17:13;-22780.69;;;11.64;100.00
5296;BME280;2670;42.720;23.336;2023-02-28T11:19:45;-22779.19;;;11.59;100.00
5296;BME280;2670;42.720;23.336;2023-02-28T11:22:18;-22778.59;;;11.57;100.00
5296;BME280;2670;42.720;23.336;2023-02-28T11:24:48;-22777.56;;;11.54;100.00
5296;BME280;2670;42.720;23.336;2023-02-28T11:27:45;-22777.56;;;11.54;100.00
5296;BME280;2670;42.720;23.336;2023-02-28T11:30:34;-22779.06;;;11.59;100.00
5296;BME280;2670;42.720;23.336;2023-02-28T11:33:23;-22781.84;;;11.68;100.00
5296;BME280;2670;42.720;23.336;2023-02-28T11:35:57;-22782.59;;;11.71;100.00
5296;BME280;2670;42.720;23.336;2023-02-28T11:38:26;-22783.94;;;11.76;100.00
5296;BME280;2670;42.720;23.336;2023-02-28T11:41:05;-22785.84;;;11.82;100.00
5296;BME280;2670;42.720;23.336;2023-02-28T11:43:47;-22784.97;;;11.79;100.00
5296;BME280;2670;42.720;23.336;2023-02-28T11:46:25;-22782.00;;;11.69;100.00
5296;BME280;2670;42.720;23.336;2023-02-28T11:49:04;-22780.53;;;11.64;100.00
5296;BME280;2670;42.720;23.336;2023-02-28T11:51:47;-22782.59;;;11.71;100.00
5296;BME280;2670;42.720;23.336;2023-02-28T11:54:48;-22786.00;;;11.83;100.00
5296;BME280;2670;42.720;23.336;2023-02-28T11:57:33;-22788.22;;;11.90;100.00
5296;BME280;2670;42.720;23.336;2023-02-28T12:00:08;-22787.34;;;11.87;100.00
5296;BME280;2670;42.720;23.336;2023-02-28T12:02:52;-22787.78;;;11.89;100.00
5296;BME280;2670;42.720;23.336;2023-02-28T12:05:29;-22786.88;;;11.86;100.00
5296;BME280;2670;42.720;23.336;2023-02-28T12:08:22;-22790.28;;;11.98;100.00
5296;BME280;2670;42.720;23.336;2023-02-28T12:10:59;-22791.19;;;12.01;100.00
5296;BME280;2670;42.720;23.336;2023-02-28T12:13:38;-22789.25;;;11.94;100.00
5296;BME280;2670;42.720;23.336;2023-02-28T12:16:33;-22789.13;;;11.93;100.00
5296;BME280;2670;42.720;23.336;2023-02-28T12:19:13;-22787.78;;;11.89;100.00
5296;BME280;2670;42.720;23.336;2023-02-28T12:21:54;-22786.44;;;11.84;100.00
5296;BME280;2670;42.720;23.336;2023-02-28T12:24:42;-22787.34;;;11.87;100.00
5296;BME280;2670;42.720;23.336;2023-02-28T12:27:14;-22787.50;;;11.88;100.00
5296;BME280;2670;42.720;23.336;2023-02-28T12:29:47;-22790.59;;;11.99;100.00
5296;BME280;2670;42.720;23.336;2023-02-28T12:32:18;-22790.44;;;11.98;100.00
5296;BME280;2670;42.720;23.336;2023-02-28T12:34:49;-22793.09;;;12.07;100.00
5296;BME280;2670;42.720;23.336;2023-02-28T12:37:22;-22795.19;;;12.14;100.00
5296;BME280;2670;42.720;23.336;2023-02-28T12:39:59;-22792.66;;;12.06;100.00
5296;BME280;2670;42.720;23.336;2023-02-28T12:42:29;-22793.09;;;12.07;100.00
5296;BME280;2670;42.720;23.336;2023-02-28T12:44:59;-22791.34;;;12.01;100.00
5296;BME280;2670;42.720;23.336;2023-02-28T12:47:27;-22791.47;;;12.02;100.00
5296;BME280;2670;42.720;23.336;2023-02-28T12:49:57;-22789.56;;;11.95;100.00
5296;BME280;2670;42.720;23.336;2023-02-28T12:52:30;-22788.97;;;11.93;100.00
5296;BME280;2670;42.720;23.336;2023-02-28T12:55:07;-22790.16;;;11.97;100.00
5296;BME280;2670;42.720;23.336;2023-02-28T12:57:42;-22790.16;;;11.97;100.00
5296;BME280;2670;42.720;23.336;2023-02-28T13:00:13;-22787.94;;;11.89;100.00
5296;BME280;2670;42.720;23.336;2023-02-28T13:06:04;-22788.22;;;11.90;100.00
5296;BME280;2670;42.720;23.336;2023-02-28T13:09:04;-22785.41;;;11.81;100.00
5296;BME280;2670;42.720;23.336;2023-02-28T13:11:41;-22785.13;;;11.80;100.00
5296;BME280;2670;42.720;23.336;2023-02-28T13:14:20;-22785.41;;;11.81;100.00
5296;BME280;2670;42.720;23.336;2023-02-28T13:16:55;-22787.34;;;11.87;100.00
5296;BME280;2670;42.720;23.336;2023-02-28T13:19:24;-22787.78;;;11.89;100.00
5296;BME280;2670;42.720;23.336;2023-02-28T13:21:52;-22787.94;;;11.89;100.00